createdAt,value
2019-02-05T00:02:23.541Z,15.43
2019-02-05T00:04:53.123Z,15.40
2019-02-05T00:07:21.961Z,14.67
2019-02-05T00:09:50.801Z,14.70
2019-02-05T00:12:19.645Z,16.20
2019-02-05T00:14:48.478Z,14.63
2019-02-05T00:17:17.307Z,15.67
2019-02-05T00:19:46.145Z,14.93
2019-02-05T00:22:15.005Z,15.23
2019-02-05T00:24:43.819Z,18.50
2019-02-05T00:27:12.657Z,17.77
2019-02-05T00:29:41.487Z,16.00
2019-02-05T00:32:10.341Z,16.53
2019-02-05T00:34:39.178Z,16.83
2019-02-05T00:37:08.021Z,16.30
2019-02-05T00:39:36.867Z,16.03
2019-02-05T00:42:05.729Z,17.53
2019-02-05T00:44:34.560Z,16.25
2019-02-05T00:47:03.391Z,16.27
2019-02-05T00:49:32.228Z,17.07
2019-02-05T00:52:01.062Z,15.77
2019-02-05T00:54:29.889Z,18.27
2019-02-05T00:56:59.417Z,16.60
2019-02-05T00:59:28.169Z,17.60
2019-02-05T01:01:57.025Z,16.57
2019-02-05T01:04:25.864Z,19.50
2019-02-05T01:06:54.713Z,18.40
2019-02-05T01:09:23.553Z,20.43
2019-02-05T01:11:52.387Z,20.13
2019-02-05T01:14:21.230Z,17.63
2019-02-05T01:16:50.071Z,20.30
2019-02-05T01:19:18.904Z,22.98
2019-02-05T01:21:47.752Z,20.13
2019-02-05T01:24:16.583Z,22.50
2019-02-05T01:26:45.431Z,19.50
2019-02-05T01:29:14.268Z,23.92
2019-02-05T01:31:43.847Z,24.63
2019-02-05T01:34:12.687Z,20.10
2019-02-05T01:36:41.519Z,20.83
2019-02-05T01:39:10.357Z,16.67
2019-02-05T01:41:39.228Z,15.67
2019-02-05T01:44:08.815Z,15.50
2019-02-05T01:46:37.661Z,16.07
2019-02-05T01:49:06.495Z,15.30
2019-02-05T01:51:35.336Z,13.63
2019-02-05T01:54:04.183Z,15.47
2019-02-05T01:56:40.395Z,14.23
2019-02-05T01:59:01.873Z,15.25
2019-02-05T02:01:30.703Z,14.57
2019-02-05T02:03:59.535Z,15.80
2019-02-05T02:06:28.373Z,16.13
2019-02-05T02:08:57.223Z,14.43
2019-02-05T02:11:26.046Z,14.27
2019-02-05T02:13:54.892Z,15.50
2019-02-05T02:16:23.733Z,13.43
2019-02-05T02:18:52.568Z,13.97
2019-02-05T02:21:21.523Z,14.50
2019-02-05T02:23:50.232Z,14.03
2019-02-05T02:26:19.059Z,12.57
2019-02-05T02:28:47.898Z,14.53
2019-02-05T02:31:16.734Z,14.20
2019-02-05T02:33:46.315Z,14.07
2019-02-05T02:36:15.164Z,14.90
2019-02-05T02:38:43.994Z,14.63
2019-02-05T02:41:12.838Z,14.83
2019-02-05T02:43:41.671Z,15.03
2019-02-05T02:46:10.523Z,14.47
2019-02-05T02:48:39.340Z,13.90
2019-02-05T02:51:08.175Z,14.20
2019-02-05T02:53:37.747Z,14.70
2019-02-05T02:56:06.577Z,15.10
2019-02-05T02:58:35.428Z,13.80
2019-02-05T03:01:04.265Z,13.80
2019-02-05T03:03:33.103Z,14.60
2019-02-05T03:06:01.928Z,14.73
2019-02-05T03:08:30.792Z,14.87
2019-02-05T03:10:59.602Z,13.50
2019-02-05T03:13:28.538Z,14.17
2019-02-05T03:15:57.264Z,14.53
2019-02-05T03:18:26.835Z,14.73
2019-02-05T03:20:55.680Z,14.33
2019-02-05T03:23:24.568Z,14.37
2019-02-05T03:25:53.359Z,14.70
2019-02-05T03:28:22.219Z,13.93
2019-02-05T03:30:51.802Z,14.13
2019-02-05T03:33:20.640Z,14.63
2019-02-05T03:35:49.488Z,14.00
2019-02-05T03:38:18.319Z,15.33
2019-02-05T03:40:52.017Z,13.27
2019-02-05T03:43:20.857Z,15.93
2019-02-05T03:45:49.692Z,15.57
2019-02-05T03:48:18.540Z,15.97
2019-02-05T03:50:47.370Z,14.80
2019-02-05T03:53:16.207Z,15.03
2019-02-05T03:55:47.978Z,15.37
2019-02-05T03:58:25.104Z,15.43
2019-02-05T04:01:06.087Z,16.77
2019-02-05T04:03:46.165Z,17.50
2019-02-05T04:09:04.435Z,17.80
2019-02-05T04:14:34.040Z,17.50
2019-02-05T04:19:49.192Z,16.27
2019-02-05T04:22:24.498Z,16.83
2019-02-05T04:25:01.226Z,16.60
2019-02-05T04:27:43.643Z,17.23
2019-02-05T04:32:50.116Z,19.02
2019-02-05T04:38:07.761Z,22.35
2019-02-05T04:43:30.467Z,21.52
2019-02-05T04:46:03.070Z,18.80
2019-02-05T04:48:43.589Z,18.03
2019-02-05T04:51:13.586Z,19.40
2019-02-05T04:53:58.047Z,19.13
2019-02-05T04:59:17.878Z,20.85
2019-02-05T05:04:33.388Z,21.65
2019-02-05T05:07:06.878Z,19.80
2019-02-05T05:12:17.189Z,19.10
2019-02-05T05:14:46.770Z,17.40
2019-02-05T05:17:15.602Z,18.47
2019-02-05T05:19:44.449Z,17.83
2019-02-05T05:22:13.284Z,20.00
2019-02-05T05:24:42.113Z,17.63
2019-02-05T05:27:10.950Z,17.67
2019-02-05T05:29:39.789Z,18.60
2019-02-05T05:32:08.736Z,19.57
2019-02-05T05:34:37.467Z,19.67
2019-02-05T05:37:05.575Z,21.30
2019-02-05T05:39:35.148Z,20.43
2019-02-05T05:42:04.018Z,20.43
2019-02-05T05:44:32.825Z,19.20
2019-02-05T05:47:01.674Z,21.17
2019-02-05T05:49:30.506Z,21.90
2019-02-05T05:51:59.348Z,20.60
2019-02-05T05:54:28.285Z,21.03
2019-02-05T05:56:57.626Z,20.47
2019-02-05T05:59:26.455Z,21.67
2019-02-05T06:01:55.299Z,19.63
2019-02-05T06:04:25.619Z,20.47
2019-02-05T06:06:54.025Z,21.47
2019-02-05T06:09:22.873Z,19.30
2019-02-05T06:11:52.471Z,20.77
2019-02-05T06:14:21.320Z,20.73
2019-02-05T06:16:50.154Z,18.90
2019-02-05T06:19:19.014Z,19.40
2019-02-05T06:21:47.869Z,20.90
2019-02-05T06:24:16.735Z,23.20
2019-02-05T06:26:46.330Z,21.80
2019-02-05T06:29:15.903Z,23.92
2019-02-05T06:31:44.736Z,22.62
2019-02-05T06:34:14.319Z,23.80
2019-02-05T06:36:43.146Z,20.47
2019-02-05T06:39:11.993Z,21.37
2019-02-05T06:41:40.833Z,20.10
2019-02-05T06:44:09.686Z,21.13
2019-02-05T06:46:39.280Z,21.03
2019-02-05T06:49:08.104Z,21.23
2019-02-05T06:51:36.954Z,20.63
2019-02-05T06:54:05.796Z,19.40
2019-02-05T06:56:34.646Z,19.93
2019-02-05T06:59:04.256Z,19.93
2019-02-05T07:01:33.861Z,20.53
2019-02-05T07:04:02.731Z,22.70
2019-02-05T07:06:31.560Z,20.50
2019-02-05T07:09:01.146Z,23.60
2019-02-05T07:11:30.728Z,22.43
2019-02-05T07:13:59.576Z,22.87
2019-02-05T07:16:28.412Z,20.43
2019-02-05T07:18:57.262Z,23.40
2019-02-05T07:21:26.173Z,22.87
2019-02-05T07:23:55.702Z,23.57
2019-02-05T07:26:24.554Z,23.70
2019-02-05T07:28:58.418Z,21.83
2019-02-05T07:31:22.263Z,22.77
2019-02-05T07:33:51.117Z,25.02
2019-02-05T07:36:19.962Z,24.33
2019-02-05T07:38:49.390Z,23.50
2019-02-05T07:41:18.228Z,24.77
2019-02-05T07:43:47.068Z,22.57
2019-02-05T07:46:15.915Z,23.23
2019-02-05T07:48:44.755Z,24.27
2019-02-05T07:51:13.588Z,24.07
2019-02-05T07:53:42.440Z,22.90
2019-02-05T07:56:12.942Z,25.30
2019-02-05T07:58:40.136Z,24.60
2019-02-05T08:01:08.994Z,24.50
2019-02-05T08:03:37.824Z,23.60
2019-02-05T08:06:06.666Z,27.47
2019-02-05T08:08:35.570Z,25.43
2019-02-05T08:11:04.334Z,24.00
2019-02-05T08:13:33.921Z,25.77
2019-02-05T08:16:03.083Z,25.37
2019-02-05T08:18:31.586Z,25.93
2019-02-05T08:21:00.436Z,27.03
2019-02-05T08:23:29.297Z,30.27
2019-02-05T08:25:58.872Z,27.03
2019-02-05T08:28:27.712Z,27.43
2019-02-05T08:30:56.552Z,28.73
2019-02-05T08:33:25.392Z,29.33
2019-02-05T08:35:54.230Z,30.43
2019-02-05T08:38:23.087Z,32.47
2019-02-05T08:40:51.920Z,34.88
2019-02-05T08:43:20.767Z,35.37
2019-02-05T08:45:56.775Z,37.38
2019-02-05T08:48:19.188Z,36.27
2019-02-05T08:50:48.018Z,36.77
2019-02-05T08:53:16.852Z,34.87
2019-02-05T08:55:45.733Z,39.73
2019-02-05T08:58:14.538Z,36.60
2019-02-05T09:00:43.372Z,37.77
2019-02-05T09:03:12.214Z,44.00
2019-02-05T09:05:41.056Z,46.60
2019-02-05T09:08:09.896Z,41.90
2019-02-05T09:10:38.725Z,37.50
2019-02-05T09:13:07.566Z,36.03
2019-02-05T09:15:36.399Z,41.53
2019-02-05T09:18:05.978Z,36.77
2019-02-05T09:20:35.556Z,35.73
2019-02-05T09:23:04.400Z,37.57
2019-02-05T09:25:33.987Z,35.47
2019-02-05T09:28:02.826Z,37.07
2019-02-05T09:30:33.450Z,34.90
2019-02-05T09:33:02.317Z,38.27
2019-02-05T09:35:31.900Z,40.10
2019-02-05T09:38:00.757Z,35.50
2019-02-05T09:40:30.383Z,39.08
2019-02-05T09:42:59.225Z,33.90
2019-02-05T09:45:28.072Z,34.73
2019-02-05T09:47:56.919Z,34.13
2019-02-05T09:50:25.760Z,33.43
2019-02-05T09:52:54.597Z,32.93
2019-02-05T09:55:23.444Z,33.40
2019-02-05T09:57:53.031Z,33.43
2019-02-05T10:00:28.648Z,32.87
2019-02-05T10:02:57.488Z,32.33
2019-02-05T10:05:27.898Z,32.37
2019-02-05T10:07:56.734Z,28.80
2019-02-05T10:10:25.580Z,28.87
2019-02-05T10:12:54.426Z,30.23
2019-02-05T10:15:25.170Z,29.27
2019-02-05T10:17:54.005Z,29.13
2019-02-05T10:20:23.584Z,29.27
2019-02-05T10:22:52.521Z,29.50
2019-02-05T10:25:21.362Z,30.00
2019-02-05T10:27:50.191Z,26.50
2019-02-05T10:30:19.777Z,29.10
2019-02-05T10:32:48.628Z,26.77
2019-02-05T10:35:17.521Z,27.00
2019-02-05T10:37:46.362Z,24.43
2019-02-05T10:40:15.955Z,26.43
2019-02-05T10:42:44.786Z,25.07
2019-02-05T10:45:16.404Z,25.60
2019-02-05T10:47:45.997Z,28.53
2019-02-05T10:50:14.839Z,25.43
2019-02-05T10:52:43.678Z,26.75
2019-02-05T10:55:15.856Z,27.83
2019-02-05T10:57:45.437Z,24.47
2019-02-05T11:00:15.050Z,24.80
2019-02-05T11:02:43.920Z,26.90
2019-02-05T11:05:12.758Z,22.70
2019-02-05T11:07:41.598Z,25.43
2019-02-05T11:10:10.436Z,22.67
2019-02-05T11:12:39.311Z,27.40
2019-02-05T11:15:08.162Z,25.63
2019-02-05T11:17:37.000Z,24.70
2019-02-05T11:20:05.837Z,23.00
2019-02-05T11:22:34.662Z,22.97
2019-02-05T11:25:03.492Z,21.40
2019-02-05T11:27:32.339Z,21.70
2019-02-05T11:30:01.187Z,20.60
2019-02-05T11:32:30.020Z,22.77
2019-02-05T11:34:58.853Z,20.70
2019-02-05T11:37:27.695Z,20.43
2019-02-05T11:39:56.528Z,20.07
2019-02-05T11:42:25.366Z,20.83
2019-02-05T11:44:54.216Z,19.83
2019-02-05T11:47:23.058Z,19.90
2019-02-05T11:49:52.659Z,20.30
2019-02-05T11:52:22.245Z,21.30
2019-02-05T11:54:51.089Z,22.33
2019-02-05T11:57:19.948Z,22.73
2019-02-05T11:59:49.533Z,19.97
2019-02-05T12:02:18.358Z,20.20
2019-02-05T12:04:47.234Z,22.03
2019-02-05T12:07:16.818Z,22.23
2019-02-05T12:09:45.673Z,18.93
2019-02-05T12:12:14.508Z,22.63
2019-02-05T12:14:43.357Z,21.33
2019-02-05T12:17:12.194Z,20.43
2019-02-05T12:19:41.040Z,19.93
2019-02-05T12:22:09.867Z,21.55
2019-02-05T12:24:38.710Z,25.47
2019-02-05T12:27:07.548Z,24.77
2019-02-05T12:29:37.150Z,19.53
2019-02-05T12:32:05.988Z,20.88
2019-02-05T12:34:34.821Z,19.10
2019-02-05T12:37:03.663Z,20.17
2019-02-05T12:39:32.502Z,18.40
2019-02-05T12:42:01.376Z,18.00
2019-02-05T12:44:30.210Z,18.95
2019-02-05T12:46:59.058Z,17.00
2019-02-05T12:49:27.894Z,17.97
2019-02-05T12:51:56.732Z,15.73
2019-02-05T12:54:25.578Z,15.67
2019-02-05T12:56:54.414Z,15.40
2019-02-05T12:59:23.259Z,15.33
2019-02-05T13:01:52.107Z,14.53
2019-02-05T13:04:20.957Z,15.73
2019-02-05T13:06:49.805Z,15.73
2019-02-05T13:09:19.375Z,15.57
2019-02-05T13:11:48.212Z,14.43
2019-02-05T13:14:17.069Z,15.47
2019-02-05T13:16:45.902Z,13.77
2019-02-05T13:19:14.754Z,14.00
2019-02-05T13:21:44.340Z,13.70
2019-02-05T13:24:13.184Z,14.25
2019-02-05T13:26:42.027Z,13.33
2019-02-05T13:29:10.878Z,12.83
2019-02-05T13:31:39.743Z,13.77
2019-02-05T13:34:08.600Z,13.07
2019-02-05T13:36:37.455Z,14.13
2019-02-05T13:39:06.306Z,12.98
2019-02-05T13:41:35.172Z,11.83
2019-02-05T13:44:04.010Z,12.27
2019-02-05T13:46:32.854Z,14.73
2019-02-05T13:49:02.452Z,13.40
2019-02-05T13:51:31.950Z,14.68
2019-02-05T13:54:00.767Z,14.05
2019-02-05T13:56:30.364Z,13.10
2019-02-05T13:58:59.949Z,12.83
2019-02-05T14:01:28.818Z,14.40
2019-02-05T14:03:57.666Z,12.10
2019-02-05T14:06:26.558Z,13.27
2019-02-05T14:08:55.403Z,12.37
2019-02-05T14:11:24.265Z,15.87
2019-02-05T14:13:53.153Z,12.87
2019-02-05T14:16:22.128Z,13.33
2019-02-05T14:18:55.260Z,12.40
2019-02-05T14:21:21.197Z,12.80
2019-02-05T14:23:50.068Z,12.47
2019-02-05T14:26:18.949Z,14.63
2019-02-05T14:28:47.795Z,13.47
2019-02-05T14:31:16.641Z,14.33
2019-02-05T14:33:58.390Z,13.50
2019-02-05T14:36:27.187Z,12.27
2019-02-05T14:38:56.051Z,13.87
2019-02-05T14:41:25.678Z,12.77
2019-02-05T14:43:54.497Z,12.90
2019-02-05T14:46:23.346Z,13.07
2019-02-05T14:48:52.181Z,13.43
2019-02-05T14:51:21.037Z,12.30
2019-02-05T14:53:49.897Z,12.37
2019-02-05T14:56:18.761Z,12.03
2019-02-05T14:58:47.651Z,11.90
2019-02-05T15:01:16.490Z,13.10
2019-02-05T15:03:45.351Z,31.80
2019-02-05T15:06:14.217Z,26.50
2019-02-05T15:08:43.100Z,14.87
2019-02-05T15:11:11.947Z,14.73
2019-02-05T15:13:40.809Z,12.30
2019-02-05T15:16:10.395Z,12.00
2019-02-05T15:18:39.265Z,14.93
2019-02-05T15:21:08.131Z,12.33
2019-02-05T15:23:37.721Z,11.37
2019-02-05T15:26:06.575Z,10.93
2019-02-05T15:28:35.459Z,11.40
2019-02-05T15:31:04.327Z,11.70
2019-02-05T15:33:37.039Z,11.57
2019-02-05T15:36:08.702Z,12.07
2019-02-05T15:38:37.552Z,11.33
2019-02-05T15:41:06.403Z,11.23
2019-02-05T15:43:35.257Z,11.33
2019-02-05T15:46:04.111Z,12.53
2019-02-05T15:48:32.993Z,11.67
2019-02-05T15:51:02.555Z,11.30
2019-02-05T15:53:31.451Z,10.83
2019-02-05T15:56:00.257Z,13.10
2019-02-05T15:58:29.115Z,12.10
2019-02-05T16:00:57.992Z,11.80
2019-02-05T16:03:26.823Z,12.63
2019-02-05T16:05:55.681Z,13.38
2019-02-05T16:08:24.547Z,12.03
2019-02-05T16:10:53.420Z,20.90
2019-02-05T16:13:22.271Z,12.47
2019-02-05T16:15:51.131Z,12.93
2019-02-05T16:18:19.987Z,17.33
2019-02-05T16:20:48.843Z,13.90
2019-02-05T16:23:17.694Z,11.73
2019-02-05T16:25:46.550Z,13.10
2019-02-05T16:28:15.393Z,12.10
2019-02-05T16:30:44.263Z,13.17
2019-02-05T16:33:13.905Z,12.57
2019-02-05T16:35:42.732Z,15.30
2019-02-05T16:38:11.590Z,12.57
2019-02-05T16:40:40.460Z,15.60
2019-02-05T16:43:09.306Z,13.97
2019-02-05T16:45:38.183Z,20.23
2019-02-05T16:48:07.014Z,15.40
2019-02-05T16:50:38.259Z,16.00
2019-02-05T16:53:07.071Z,15.13
2019-02-05T16:55:35.930Z,15.10
2019-02-05T16:58:04.792Z,15.87
2019-02-05T17:00:33.638Z,15.77
2019-02-05T17:03:02.519Z,16.67
2019-02-05T17:05:31.394Z,15.27
2019-02-05T17:08:00.253Z,16.67
2019-02-05T17:10:29.108Z,15.83
2019-02-05T17:12:57.970Z,19.00
2019-02-05T17:15:26.817Z,16.13
2019-02-05T17:17:55.675Z,13.87
2019-02-05T17:22:57.083Z,13.83
2019-02-05T17:25:26.004Z,17.42
2019-02-05T17:27:54.810Z,13.10
2019-02-05T17:30:24.650Z,13.63
2019-02-05T17:32:53.471Z,14.30
2019-02-05T17:35:22.381Z,16.55
2019-02-05T17:37:51.150Z,18.53
2019-02-05T17:40:21.580Z,18.57
2019-02-05T17:42:50.449Z,17.50
2019-02-05T17:47:57.795Z,17.35
2019-02-05T17:50:27.396Z,19.17
2019-02-05T17:52:56.974Z,21.40
2019-02-05T17:55:25.822Z,20.10
2019-02-05T17:57:54.654Z,19.90
2019-02-05T18:00:26.415Z,17.37
2019-02-05T18:02:55.252Z,16.73
2019-02-05T18:05:24.100Z,13.63
2019-02-05T18:07:52.956Z,15.37
2019-02-05T18:10:24.574Z,15.60
2019-02-05T18:12:53.423Z,13.47
2019-02-05T18:15:24.055Z,13.00
2019-02-05T18:17:52.892Z,12.97
2019-02-05T18:20:21.727Z,14.97
2019-02-05T18:22:50.841Z,14.23
2019-02-05T18:25:19.724Z,14.57
2019-02-05T18:27:48.570Z,15.27
2019-02-05T18:30:19.352Z,14.27
2019-02-05T18:32:48.196Z,17.77
2019-02-05T18:35:17.045Z,15.03
2019-02-05T18:37:45.919Z,15.20
2019-02-05T18:40:14.746Z,17.43
2019-02-05T18:42:43.614Z,18.43
2019-02-05T18:45:13.253Z,27.07
2019-02-05T18:47:42.088Z,24.17
2019-02-05T18:50:14.801Z,25.27
2019-02-05T18:52:43.638Z,21.80
2019-02-05T18:55:12.469Z,23.27
2019-02-05T18:57:41.324Z,19.67
2019-02-05T19:00:11.808Z,19.58
2019-02-05T19:02:40.855Z,21.93
2019-02-05T19:05:09.479Z,21.53
2019-02-05T19:07:38.324Z,21.33
2019-02-05T19:10:07.177Z,22.70
2019-02-05T19:12:36.010Z,21.83
2019-02-05T19:15:04.901Z,23.67
2019-02-05T19:17:33.718Z,20.73
2019-02-05T19:20:02.576Z,21.40
2019-02-05T19:22:31.453Z,21.93
2019-02-05T19:25:00.333Z,22.20
2019-02-05T19:27:29.157Z,25.70
2019-02-05T19:29:58.571Z,24.23
2019-02-05T19:32:28.163Z,28.07
2019-02-05T19:34:57.890Z,23.70
2019-02-05T19:37:26.447Z,24.12
2019-02-05T19:39:55.314Z,29.03
2019-02-05T19:42:24.136Z,24.60
2019-02-05T19:44:52.986Z,25.50
2019-02-05T19:47:22.600Z,24.27
2019-02-05T19:49:51.424Z,26.33
2019-02-05T19:52:21.034Z,22.90
2019-02-05T19:54:49.868Z,24.23
2019-02-05T19:57:18.714Z,24.90
2019-02-05T19:59:48.335Z,23.57
2019-02-05T20:02:17.914Z,23.70
2019-02-05T20:04:46.779Z,24.73
2019-02-05T20:07:15.631Z,25.23
2019-02-05T20:09:44.481Z,22.83
2019-02-05T20:12:13.313Z,22.13
2019-02-05T20:14:42.174Z,19.73
2019-02-05T20:17:11.028Z,20.27
2019-02-05T20:19:39.878Z,22.65
2019-02-05T20:22:08.723Z,19.93
2019-02-05T20:24:37.625Z,18.90
2019-02-05T20:27:07.218Z,18.10
2019-02-05T20:29:36.075Z,20.63
2019-02-05T20:32:04.914Z,24.03
2019-02-05T20:34:34.525Z,29.10
2019-02-05T20:37:03.379Z,28.20
2019-02-05T20:39:32.241Z,27.67
2019-02-05T20:42:01.134Z,26.43
2019-02-05T20:44:30.711Z,24.87
2019-02-05T20:47:00.447Z,23.50
2019-02-05T20:49:29.247Z,20.70
2019-02-05T20:51:58.096Z,20.43
2019-02-05T20:54:27.679Z,22.70
2019-02-05T20:56:56.557Z,21.17
2019-02-05T20:59:25.383Z,22.77
2019-02-05T21:01:56.208Z,23.87
2019-02-05T21:04:23.796Z,27.10
2019-02-05T21:06:52.645Z,25.23
2019-02-05T21:09:21.507Z,25.00
2019-02-05T21:11:50.340Z,23.53
2019-02-05T21:14:19.956Z,22.10
2019-02-05T21:16:49.535Z,19.43
2019-02-05T21:19:18.433Z,23.70
2019-02-05T21:21:47.244Z,28.50
2019-02-05T21:24:16.092Z,28.17
2019-02-05T21:26:44.954Z,25.87
2019-02-05T21:29:13.797Z,23.60
2019-02-05T21:31:42.673Z,20.33
2019-02-05T21:34:15.255Z,21.97
2019-02-05T21:36:40.339Z,20.87
2019-02-05T21:39:09.234Z,22.20
2019-02-05T21:41:38.052Z,23.70
2019-02-05T21:44:06.916Z,29.77
2019-02-05T21:46:35.759Z,29.40
2019-02-05T21:49:04.608Z,25.45
2019-02-05T21:51:40.461Z,24.23
2019-02-05T21:54:02.323Z,28.00
2019-02-05T21:56:31.159Z,31.40
2019-02-05T21:59:00.031Z,27.73
2019-02-05T22:01:28.891Z,30.67
2019-02-05T22:03:57.701Z,29.43
2019-02-05T22:06:26.580Z,27.97
2019-02-05T22:08:55.381Z,24.73
2019-02-05T22:11:24.222Z,23.47
2019-02-05T22:13:53.058Z,24.93
2019-02-05T22:16:21.893Z,26.07
2019-02-05T22:18:50.775Z,30.33
2019-02-05T22:21:19.572Z,23.37
2019-02-05T22:23:48.409Z,23.67
2019-02-05T22:26:17.245Z,20.23
2019-02-05T22:28:46.079Z,19.57
2019-02-05T22:31:14.911Z,19.53
2019-02-05T22:33:43.756Z,21.13
2019-02-05T22:36:12.617Z,20.52
2019-02-05T22:38:41.430Z,19.80
2019-02-05T22:41:10.271Z,19.63
2019-02-05T22:43:39.121Z,18.57
2019-02-05T22:46:07.995Z,19.23
2019-02-05T22:48:36.804Z,16.93
2019-02-05T22:51:05.646Z,17.90
2019-02-05T22:53:34.482Z,18.90
2019-02-05T22:56:03.335Z,19.43
2019-02-05T22:58:32.178Z,17.20
2019-02-05T23:01:02.702Z,17.63
2019-02-05T23:03:32.504Z,19.10
2019-02-05T23:08:47.577Z,18.95
2019-02-05T23:14:03.720Z,19.47
2019-02-05T23:16:32.562Z,21.33
2019-02-05T23:19:01.395Z,19.83
2019-02-05T23:21:30.230Z,20.50
2019-02-05T23:23:59.089Z,19.33
2019-02-05T23:26:27.943Z,20.43
2019-02-05T23:28:56.784Z,22.80
2019-02-05T23:31:25.624Z,21.97
2019-02-05T23:33:54.455Z,18.83
2019-02-05T23:36:23.280Z,17.23
2019-02-05T23:38:52.124Z,18.27
2019-02-05T23:41:21.711Z,16.30
2019-02-05T23:43:50.562Z,17.50
2019-02-05T23:46:19.407Z,19.73
2019-02-05T23:48:48.271Z,18.43
2019-02-05T23:51:17.084Z,18.10
2019-02-05T23:53:46.667Z,18.50
2019-02-05T23:56:25.376Z,20.63
2019-02-05T23:58:44.339Z,20.77
